Rembrandt, Iowa
Current Conditions -  °F | °C
As of 8:35 AM on Sunday 23 Nov 2014 (Local Time) from KSLB Reporting Station
Haze Haze  
Wind Chill: 50°   Ceiling: 500
Heat Index: 50°   Visibility: 3mi
Dew Point: 50°   Wind: 10mph
Humidity: 100%   Direction: 200°SSW
Pressure: 29.47"   Gusts: 16mph
Location:  42.83°N, 95.17°W
Report Text: KSLB 231435Z AUTO 20009G14KT 3SM BR BKN005 BKN009 OVC014 10/10 A2947 RMK AO2
Loading
Personal Weather Stations






























Interactive Weather Map New forecast layout! Learn more

10-Day Weather Forecast

Advertisements
Track Severe Weather on mobile